»·PEaware :: QAF243 KABQ-KLAS

QAF243 :: KABQ-KLAS

FLIGHT INFORMATION

Flight Status: Arrived
Operator: Unknown
More flights by this operator :: More flights under this callsign
Pilot: Cullen C. (7783)
Aircraft: AIRBUS A320
(A320)
More flights by this aircraft type
Origin: KABQ Albuquerque Intl Sunport
United States
Destination: KLAS McCarran Intl
United States
More flights between these airports :: More routes between these airports
Route: RDRNR3 GUP J72 PGS TYSSN5
File this flight plan on PilotEdge
Remarks:
Altitude:
(Current/Filed)
38,000ft
Speed:
(Current/Filed)
455kts
Departed: 30-Nov-17 05:06 PM
Arrived: 30-Nov-17 06:21 PM
Distance/Time
Traveled:
422nm/1:15
Distance/Time
To Go:
Arrived

Flight Plot

Page will automatically refresh every two minutes.

Flight plan parsing failed; only flown route is shown


Map Options




Map Legend


Flown Route
Filed Route
Departure Airport
Arrival Airport
Navaid (VOR, NDB)
Fix

Horizontal Profiles

Position Reports

Time Latitude Longitude Heading Altitude Ground
Speed
30-Nov-17 16:40 35.035156 -106.618413 44 5324ft 0kts
30-Nov-17 16:41 35.035156 -106.618413 44 5324ft 0kts
30-Nov-17 16:42 35.035156 -106.618413 44 5324ft 0kts
30-Nov-17 16:43 35.035156 -106.618413 44 5324ft 0kts
30-Nov-17 16:44 35.035156 -106.618413 44 5324ft 0kts
30-Nov-17 16:45 35.035156 -106.618413 44 5324ft 0kts
30-Nov-17 16:46 35.035156 -106.618413 44 5324ft 0kts
30-Nov-17 16:47 35.035156 -106.618413 44 5324ft 0kts
30-Nov-17 16:48 35.035156 -106.618413 44 5324ft 0kts
30-Nov-17 16:49 35.035156 -106.618413 44 5324ft 0kts
30-Nov-17 16:50 35.035156 -106.618413 44 5324ft 0kts
30-Nov-17 16:51 35.035156 -106.618413 44 5324ft 0kts
30-Nov-17 16:52 35.035156 -106.618413 44 5324ft 0kts
30-Nov-17 16:53 35.035156 -106.618413 44 5324ft 0kts
30-Nov-17 16:54 35.035156 -106.618413 44 5324ft 0kts
30-Nov-17 16:55 35.035156 -106.618413 44 5324ft 0kts
30-Nov-17 16:56 35.035156 -106.618413 44 5324ft 0kts
30-Nov-17 16:57 35.035156 -106.618413 44 5324ft 0kts
30-Nov-17 16:58 35.035156 -106.618413 44 5324ft 0kts
30-Nov-17 16:59 35.035156 -106.618413 44 5324ft 0kts
30-Nov-17 17:00 35.035156 -106.618413 44 5324ft 0kts
30-Nov-17 17:01 35.035156 -106.618413 44 5324ft 0kts
30-Nov-17 17:02 35.035156 -106.618413 44 5324ft 0kts
30-Nov-17 17:03 35.035156 -106.618413 44 5324ft 0kts
30-Nov-17 17:04 35.035171 -106.618395 44 5324ft 0kts
30-Nov-17 17:05 35.035336 -106.618145 52 5324ft 5kts
30-Nov-17 17:06 35.036477 -106.616439 87 5324ft 6kts
30-Nov-17 17:07 35.037965 -106.614232 353 5324ft 15kts
30-Nov-17 17:08 35.041012 -106.618782 306 5324ft 17kts
30-Nov-17 17:09 35.042968 -106.621418 0 5324ft 0kts
30-Nov-17 17:10 35.044361 -106.620875 85 5324ft 10kts
30-Nov-17 17:11 35.044339 -106.578991 93 6664ft 201kts
30-Nov-17 17:12 35.064222 -106.510280 25 9778ft 280kts
30-Nov-17 17:13 35.134494 -106.550972 289 12266ft 352kts
30-Nov-17 17:14 35.117447 -106.668289 246 15666ft 362kts
30-Nov-17 17:15 35.095315 -106.784541 276 19308ft 361kts
30-Nov-17 17:16 35.113279 -106.903610 278 21979ft 369kts
30-Nov-17 17:17 35.132036 -107.028535 278 24176ft 381kts
30-Nov-17 17:18 35.151199 -107.157067 278 26205ft 390kts
30-Nov-17 17:19 35.171053 -107.288701 279 27976ft 400kts
30-Nov-17 17:20 35.192760 -107.421710 278 29591ft 407kts
30-Nov-17 17:21 35.214675 -107.557776 278 31025ft 414kts
30-Nov-17 17:22 35.235636 -107.688970 278 32380ft 415kts
30-Nov-17 17:23 35.257359 -107.826032 278 33971ft 408kts
30-Nov-17 17:24 35.278599 -107.961031 277 35299ft 404kts
30-Nov-17 17:25 35.299550 -108.095188 277 36451ft 401kts
30-Nov-17 17:26 35.320213 -108.228514 277 37398ft 400kts
30-Nov-17 17:27 35.341106 -108.361889 279 38177ft 400kts
30-Nov-17 17:28 35.374479 -108.491496 283 38355ft 398kts
30-Nov-17 17:29 35.408881 -108.620082 284 38362ft 399kts
30-Nov-17 17:30 35.442646 -108.746807 283 38362ft 400kts
30-Nov-17 17:31 35.474973 -108.876485 276 38361ft 396kts
30-Nov-17 17:32 35.482976 -109.010317 271 38363ft 393kts
30-Nov-17 17:33 35.489584 -109.143662 271 38354ft 393kts
30-Nov-17 17:34 35.496051 -109.277120 271 38352ft 393kts
30-Nov-17 17:35 35.502374 -109.410651 271 38353ft 393kts
30-Nov-17 17:36 35.508556 -109.544358 271 38356ft 392kts
30-Nov-17 17:37 35.514487 -109.675758 270 38361ft 393kts
30-Nov-17 17:38 35.520268 -109.806944 270 38372ft 394kts
30-Nov-17 17:39 35.526015 -109.940771 270 38372ft 393kts
30-Nov-17 17:40 35.531611 -110.074575 270 38366ft 393kts
30-Nov-17 17:41 35.537067 -110.208619 270 38359ft 393kts
30-Nov-17 17:42 35.542350 -110.342040 270 38270ft 392kts
30-Nov-17 17:43 35.547497 -110.475760 270 38274ft 393kts
30-Nov-17 17:44 35.552494 -110.609479 270 38279ft 393kts
30-Nov-17 17:45 35.556579 -110.721906 268 38248ft 401kts
30-Nov-17 17:46 35.562250 -110.882687 268 38326ft 408kts
30-Nov-17 17:47 35.566970 -111.022350 268 38357ft 410kts
30-Nov-17 17:48 35.571569 -111.161994 268 38341ft 409kts
30-Nov-17 17:49 35.575985 -111.301331 268 38406ft 409kts
30-Nov-17 17:50 35.580243 -111.440826 268 38429ft 410kts
30-Nov-17 17:51 35.583758 -111.580777 267 38314ft 407kts
30-Nov-17 17:52 35.585992 -111.693963 266 36079ft 399kts
30-Nov-17 17:53 35.588989 -111.851783 267 32930ft 401kts
30-Nov-17 17:54 35.592187 -111.966450 268 30590ft 410kts
30-Nov-17 17:55 35.596716 -112.109874 268 30328ft 422kts
30-Nov-17 17:56 35.600992 -112.253526 269 30324ft 421kts
30-Nov-17 17:57 35.605102 -112.397766 269 30325ft 422kts
30-Nov-17 17:58 35.608108 -112.541368 269 30325ft 422kts
30-Nov-17 17:59 35.610987 -112.684982 268 29884ft 425kts
30-Nov-17 18:00 35.613790 -112.832133 271 25997ft 439kts
30-Nov-17 18:01 35.616371 -112.979986 272 23938ft 426kts
30-Nov-17 18:02 35.618781 -113.125383 272 23120ft 427kts
30-Nov-17 18:03 35.620821 -113.257463 272 22378ft 427kts
30-Nov-17 18:04 35.622872 -113.401739 272 21563ft 427kts
30-Nov-17 18:05 35.625862 -113.547013 278 20744ft 424kts
30-Nov-17 18:06 35.645345 -113.688129 281 19943ft 422kts
30-Nov-17 18:07 35.665465 -113.829923 281 19130ft 421kts
30-Nov-17 18:08 35.685303 -113.970955 281 17610ft 412kts
30-Nov-17 18:09 35.704129 -114.105987 279 14792ft 392kts
30-Nov-17 18:10 35.721685 -114.232744 278 12927ft 353kts
30-Nov-17 18:11 35.736849 -114.343262 279 12220ft 304kts
30-Nov-17 18:12 35.791171 -114.406536 331 11722ft 285kts
30-Nov-17 18:13 35.834831 -114.488175 321 11269ft 294kts
30-Nov-17 18:14 35.907114 -114.507362 356 10645ft 253kts
30-Nov-17 18:15 35.974060 -114.514789 357 9900ft 232kts
30-Nov-17 18:16 36.036699 -114.534125 307 9676ft 245kts
30-Nov-17 18:17 36.054146 -114.615761 283 9704ft 247kts
30-Nov-17 18:18 36.068065 -114.697173 282 8762ft 244kts
30-Nov-17 18:19 36.074555 -114.780006 272 7990ft 243kts
30-Nov-17 18:20 36.074200 -114.862349 270 6428ft 236kts
30-Nov-17 18:21 36.074061 -114.940061 271 4989ft 215kts
30-Nov-17 18:22 36.073893 -115.005332 270 4023ft 167kts
30-Nov-17 18:23 36.073785 -115.055563 269 3257ft 150kts
30-Nov-17 18:24 36.073691 -115.104200 269 2519ft 139kts
30-Nov-17 18:25 36.073635 -115.146805 269 2120ft 69kts
30-Nov-17 18:26 36.077412 -115.158239 350 2120ft 7kts
30-Nov-17 18:27 36.077903 -115.158423 315 2120ft 11kts
30-Nov-17 18:28 36.078022 -115.165569 269 2120ft 24kts
30-Nov-17 18:29 36.079765 -115.170243 22 2120ft 21kts
30-Nov-17 18:30 36.086304 -115.166462 25 2120ft 29kts
30-Nov-17 18:31 36.093545 -115.162323 26 2120ft 28kts
30-Nov-17 18:32 36.097938 -115.161417 259 2120ft 14kts
30-Nov-17 18:33 36.098054 -115.161816 113 2120ft 0kts
30-Nov-17 18:34 36.098054 -115.161816 113 2120ft 0kts
30-Nov-17 18:35 36.098054 -115.161816 113 2120ft 0kts
30-Nov-17 18:36 36.098054 -115.161816 113 2120ft 0kts

Navigation Log

Ident Type
Flight plan parsing failed, navigation log unavailable